createdAt,value
2023-04-01T00:00:55.324Z,7.80
2023-04-01T00:03:30.593Z,7.25
2023-04-01T00:06:22.035Z,8.50
2023-04-01T00:09:38.884Z,5.95
2023-04-01T00:12:12.897Z,10.20
2023-04-01T00:14:54.968Z,10.77
2023-04-01T00:17:24.261Z,9.18
2023-04-01T00:19:57.293Z,10.13
2023-04-01T00:22:35.700Z,10.10
2023-04-01T00:25:52.129Z,9.63
2023-04-01T00:34:29.941Z,8.48
2023-04-01T00:42:24.570Z,6.00
2023-04-01T00:45:07.892Z,6.25
2023-04-01T00:52:53.155Z,4.43
2023-04-01T00:57:41.021Z,3.28
2023-04-01T01:06:28.261Z,6.30
2023-04-01T01:08:41.427Z,13.40
2023-04-01T01:11:25.274Z,5.57
2023-04-01T01:14:27.504Z,6.63
2023-04-01T01:17:32.989Z,3.28
2023-04-01T01:20:34.648Z,7.63
2023-04-01T01:23:09.064Z,7.45
2023-04-01T01:26:14.273Z,5.20
2023-04-01T01:29:30.171Z,2.88
2023-04-01T01:32:23.148Z,6.10
2023-04-01T01:35:18.762Z,11.85
2023-04-01T01:37:51.452Z,7.28
2023-04-01T01:40:22.382Z,6.72
2023-04-01T01:42:59.004Z,6.35
2023-04-01T01:45:29.390Z,6.70
2023-04-01T01:48:00.201Z,9.25
2023-04-01T01:50:29.408Z,9.23
2023-04-01T01:53:03.306Z,6.78
2023-04-01T01:55:34.510Z,7.93
2023-04-01T01:58:11.841Z,5.15
2023-04-01T02:00:52.002Z,12.80
2023-04-01T02:03:24.788Z,19.73
2023-04-01T02:06:02.688Z,6.00
2023-04-01T02:08:46.111Z,7.72
2023-04-01T02:11:21.453Z,3.55
2023-04-01T02:14:08.468Z,5.15
2023-04-01T02:17:01.419Z,5.95
2023-04-01T02:23:03.720Z,10.20
2023-04-01T02:25:36.741Z,5.65
2023-04-01T02:28:11.669Z,8.40
2023-04-01T02:30:44.298Z,5.90
2023-04-01T02:33:21.611Z,7.38
2023-04-01T02:35:50.278Z,8.07
2023-04-01T02:38:19.276Z,13.60
2023-04-01T02:40:58.432Z,5.70
2023-04-01T02:43:28.255Z,4.00
2023-04-01T02:46:03.044Z,5.70
2023-04-01T02:48:35.366Z,6.38
2023-04-01T02:51:04.105Z,7.93
2023-04-01T02:53:34.222Z,8.38
2023-04-01T02:56:02.598Z,6.28
2023-04-01T02:58:32.327Z,7.35
2023-04-01T03:01:01.754Z,6.30
2023-04-01T03:03:31.547Z,10.27
2023-04-01T03:06:11.064Z,7.60
2023-04-01T03:11:11.494Z,10.15
2023-04-01T03:13:45.644Z,8.95
2023-04-01T03:16:15.706Z,15.38
2023-04-01T03:18:44.820Z,11.43
2023-04-01T03:21:17.002Z,8.88
2023-04-01T03:23:45.627Z,8.38
2023-04-01T03:26:14.841Z,9.02
2023-04-01T03:28:44.994Z,10.82
2023-04-01T03:31:13.897Z,7.25
2023-04-01T03:33:49.128Z,7.82
2023-04-01T03:36:18.191Z,8.25
2023-04-01T03:38:48.033Z,5.80
2023-04-01T03:41:21.962Z,6.85
2023-04-01T03:43:50.906Z,9.00
2023-04-01T03:46:20.757Z,7.75
2023-04-01T03:48:49.474Z,8.75
2023-04-01T03:51:17.505Z,7.93
2023-04-01T03:53:46.571Z,12.57
2023-04-01T03:56:14.780Z,11.73
2023-04-01T03:58:46.415Z,7.38
2023-04-01T04:01:22.129Z,8.30
2023-04-01T04:03:57.544Z,6.32
2023-04-01T04:06:27.613Z,5.47
2023-04-01T04:08:56.830Z,8.27
2023-04-01T04:11:25.205Z,7.75
2023-04-01T04:14:00.045Z,9.25
2023-04-01T04:16:29.144Z,5.10
2023-04-01T04:19:04.174Z,9.80
2023-04-01T04:21:34.992Z,8.90
2023-04-01T04:24:06.860Z,5.22
2023-04-01T04:26:55.912Z,6.22
2023-04-01T04:29:24.912Z,8.55
2023-04-01T04:31:56.260Z,10.43
2023-04-01T04:34:30.769Z,12.70
2023-04-01T04:36:59.561Z,9.88
2023-04-01T04:39:34.178Z,11.45
2023-04-01T04:42:02.671Z,8.63
2023-04-01T04:44:35.026Z,9.13
2023-04-01T04:47:04.230Z,13.43
2023-04-01T04:49:35.077Z,11.10
2023-04-01T04:52:08.258Z,13.00
2023-04-01T04:54:37.042Z,8.88
2023-04-01T04:57:07.336Z,10.30
2023-04-01T04:59:42.542Z,6.18
2023-04-01T05:02:32.911Z,12.20
2023-04-01T05:05:01.672Z,11.13
2023-04-01T05:07:32.531Z,11.68
2023-04-01T05:10:01.458Z,9.77
2023-04-01T05:12:31.920Z,7.97
2023-04-01T05:15:04.106Z,8.80
2023-04-01T05:17:34.769Z,9.23
2023-04-01T05:20:05.274Z,9.05
2023-04-01T05:22:33.455Z,12.13
2023-04-01T05:25:04.282Z,9.57
2023-04-01T05:27:33.151Z,12.37
2023-04-01T05:30:04.634Z,8.35
2023-04-01T05:32:56.998Z,8.73
2023-04-01T05:35:26.277Z,9.57
2023-04-01T05:37:54.638Z,12.10
2023-04-01T05:40:23.631Z,10.27
2023-04-01T05:42:52.012Z,8.95
2023-04-01T05:45:20.792Z,7.97
2023-04-01T05:48:11.176Z,6.38
2023-04-01T05:50:45.364Z,13.38
2023-04-01T05:53:15.638Z,10.63
2023-04-01T05:55:45.455Z,16.83
2023-04-01T05:58:13.730Z,13.15
2023-04-01T06:00:46.467Z,16.65
2023-04-01T06:03:32.435Z,7.65
2023-04-01T06:06:04.648Z,12.32
2023-04-01T06:08:35.482Z,14.18
2023-04-01T06:11:26.641Z,12.40
2023-04-01T06:14:24.568Z,11.25
2023-04-01T06:17:17.422Z,14.57
2023-04-01T06:20:13.489Z,13.10
2023-04-01T06:22:50.810Z,11.15
2023-04-01T06:25:38.549Z,14.80
2023-04-01T06:28:45.969Z,13.77
2023-04-01T06:31:19.929Z,15.27
2023-04-01T06:34:31.152Z,12.98
2023-04-01T06:37:37.433Z,15.90
2023-04-01T06:40:14.215Z,14.65
2023-04-01T06:43:21.072Z,15.80
2023-04-01T06:46:31.745Z,13.93
2023-04-01T06:49:44.664Z,16.27
2023-04-01T06:52:55.436Z,17.17
2023-04-01T06:55:57.225Z,15.27
2023-04-01T06:59:13.806Z,12.88
2023-04-01T07:01:50.024Z,24.58
2023-04-01T07:04:33.102Z,11.65
2023-04-01T07:07:43.861Z,17.77
2023-04-01T07:10:20.944Z,12.13
2023-04-01T07:13:16.269Z,12.48
2023-04-01T07:16:35.960Z,9.95
2023-04-01T07:19:27.220Z,12.52
2023-04-01T07:22:11.960Z,10.52
2023-04-01T07:25:15.140Z,11.32
2023-04-01T07:27:47.552Z,13.27
2023-04-01T07:30:31.113Z,11.45
2023-04-01T07:33:18.573Z,13.45
2023-04-01T07:36:15.115Z,18.00
2023-04-01T07:39:00.687Z,11.80
2023-04-01T07:42:09.875Z,10.15
2023-04-01T07:44:47.128Z,9.40
2023-04-01T07:47:39.808Z,11.82
2023-04-01T07:50:18.873Z,13.30
2023-04-01T07:53:10.153Z,11.93
2023-04-01T07:55:45.085Z,11.75
2023-04-01T07:58:25.847Z,13.65
2023-04-01T08:01:12.335Z,15.20
2023-04-01T08:03:59.956Z,18.63
2023-04-01T08:06:52.313Z,13.98
2023-04-01T08:09:38.463Z,9.27
2023-04-01T08:12:36.788Z,11.70
2023-04-01T08:15:58.858Z,14.00
2023-04-01T08:18:52.800Z,13.88
2023-04-01T08:21:32.956Z,14.40
2023-04-01T08:24:12.706Z,12.50
2023-04-01T08:26:52.029Z,12.40
2023-04-01T08:29:25.001Z,11.85
2023-04-01T08:32:05.127Z,12.43
2023-04-01T08:34:43.684Z,15.85
2023-04-01T08:37:27.174Z,10.25
2023-04-01T08:40:03.072Z,13.93
2023-04-01T08:43:03.766Z,14.52
2023-04-01T08:45:56.812Z,18.85
2023-04-01T08:48:49.091Z,12.88
2023-04-01T08:51:46.359Z,10.13
2023-04-01T08:54:48.225Z,12.98
2023-04-01T08:57:53.443Z,13.85
2023-04-01T09:01:14.572Z,9.95
2023-04-01T09:04:03.440Z,12.57
2023-04-01T09:06:50.459Z,17.52
2023-04-01T09:09:39.438Z,11.38
2023-04-01T09:12:41.779Z,14.43
2023-04-01T09:15:36.980Z,10.50
2023-04-01T09:18:38.915Z,16.13
2023-04-01T09:21:19.730Z,11.07
2023-04-01T09:24:18.694Z,64.57
2023-04-01T09:27:01.803Z,15.60
2023-04-01T09:29:32.690Z,13.38
2023-04-01T09:32:12.508Z,20.88
2023-04-01T09:35:12.347Z,14.75
2023-04-01T09:38:18.812Z,13.38
2023-04-01T09:41:13.731Z,22.95
2023-04-01T09:44:20.791Z,14.73
2023-04-01T09:47:56.404Z,16.02
2023-04-01T09:51:04.297Z,20.55
2023-04-01T09:53:35.042Z,12.77
2023-04-01T09:56:16.024Z,10.70
2023-04-01T09:58:59.155Z,11.57
2023-04-01T10:02:18.933Z,32.50
2023-04-01T10:05:06.308Z,10.85
2023-04-01T10:07:58.469Z,11.98
2023-04-01T10:11:00.586Z,16.00
2023-04-01T10:13:47.148Z,11.80
2023-04-01T10:16:33.286Z,11.57
2023-04-01T10:19:19.632Z,17.55
2023-04-01T10:21:56.557Z,13.13
2023-04-01T10:24:39.469Z,15.63
2023-04-01T10:27:34.632Z,15.90
2023-04-01T10:30:45.612Z,16.15
2023-04-01T10:34:02.340Z,15.95
2023-04-01T10:37:33.823Z,17.55
2023-04-01T10:40:31.002Z,16.48
2023-04-01T10:43:58.879Z,38.85
2023-04-01T10:46:35.677Z,16.83
2023-04-01T10:49:22.133Z,18.75
2023-04-01T10:52:14.282Z,12.98
2023-04-01T10:55:24.684Z,13.23
2023-04-01T10:58:43.713Z,15.57
2023-04-01T11:02:10.019Z,14.35
2023-04-01T11:05:26.669Z,13.68
2023-04-01T11:08:17.925Z,16.63
2023-04-01T11:10:51.949Z,20.00
2023-04-01T11:13:37.913Z,14.75
2023-04-01T11:16:34.010Z,16.15
2023-04-01T11:19:20.964Z,15.52
2023-04-01T11:22:07.049Z,19.58
2023-04-01T11:24:47.262Z,14.30
2023-04-01T11:28:03.989Z,19.85
2023-04-01T11:30:50.487Z,17.60
2023-04-01T11:33:21.407Z,17.52
2023-04-01T11:36:14.324Z,16.85
2023-04-01T11:39:06.667Z,15.40
2023-04-01T11:41:53.010Z,16.98
2023-04-01T11:45:08.995Z,16.40
2023-04-01T11:48:06.560Z,16.60
2023-04-01T11:50:49.291Z,17.38
2023-04-01T11:53:37.287Z,19.33
2023-04-01T11:56:24.253Z,17.17
2023-04-01T11:59:18.280Z,19.58
2023-04-01T12:02:01.845Z,19.58
2023-04-01T12:04:44.852Z,19.00
2023-04-01T12:08:00.911Z,19.52
2023-04-01T12:11:05.206Z,17.80
2023-04-01T12:16:11.977Z,16.85
2023-04-01T12:19:04.076Z,25.83
2023-04-01T12:21:44.250Z,21.08
2023-04-01T12:24:50.665Z,25.40
2023-04-01T12:27:24.705Z,21.02
2023-04-01T12:29:55.836Z,20.20
2023-04-01T12:32:39.571Z,27.23
2023-04-01T12:35:13.169Z,27.58
2023-04-01T12:37:45.209Z,20.35
2023-04-01T12:40:34.505Z,24.60
2023-04-01T12:43:14.212Z,21.95
2023-04-01T12:46:09.339Z,23.83
2023-04-01T12:49:11.419Z,24.52
2023-04-01T12:51:57.813Z,23.92
2023-04-01T12:54:48.078Z,24.75
2023-04-01T12:57:15.996Z,28.08
2023-04-01T12:59:55.625Z,26.83
2023-04-01T13:02:59.421Z,29.42
2023-04-01T13:05:39.119Z,32.60
2023-04-01T13:08:17.157Z,27.42
2023-04-01T13:10:51.553Z,20.47
2023-04-01T13:14:11.971Z,23.30
2023-04-01T13:17:11.073Z,26.13
2023-04-01T13:20:13.767Z,23.15
2023-04-01T13:23:12.649Z,25.98
2023-04-01T13:25:40.514Z,26.45
2023-04-01T13:28:17.431Z,31.10
2023-04-01T13:30:56.944Z,27.42
2023-04-01T13:33:48.317Z,26.38
2023-04-01T13:36:33.986Z,28.50
2023-04-01T13:39:35.050Z,29.48
2023-04-01T13:42:26.257Z,28.98
2023-04-01T13:45:16.545Z,29.38
2023-04-01T13:48:06.119Z,32.70
2023-04-01T13:50:58.030Z,34.13
2023-04-01T13:53:36.005Z,31.27
2023-04-01T13:56:23.802Z,30.42
2023-04-01T13:59:15.760Z,35.80
2023-04-01T14:01:44.115Z,35.47
2023-04-01T14:04:39.076Z,33.85
2023-04-01T14:07:23.561Z,28.27
2023-04-01T14:10:05.955Z,26.95
2023-04-01T14:12:53.453Z,29.58
2023-04-01T14:15:50.875Z,22.13
2023-04-01T14:18:34.093Z,25.60
2023-04-01T14:21:02.106Z,24.48
2023-04-01T14:24:00.754Z,22.80
2023-04-01T14:26:49.624Z,23.75
2023-04-01T14:29:33.219Z,17.42
2023-04-01T14:32:16.695Z,19.27
2023-04-01T14:35:15.863Z,22.98
2023-04-01T14:37:49.432Z,20.33
2023-04-01T14:40:29.043Z,15.52
2023-04-01T14:45:46.132Z,22.30
2023-04-01T14:51:04.606Z,16.27
2023-04-01T14:53:39.702Z,17.13
2023-04-01T14:56:07.628Z,15.43
2023-04-01T14:59:01.456Z,16.35
2023-04-01T15:01:50.670Z,15.00
2023-04-01T15:04:39.973Z,24.25
2023-04-01T15:07:28.834Z,14.85
2023-04-01T15:10:11.923Z,10.37
2023-04-01T15:12:54.722Z,9.70
2023-04-01T15:15:46.055Z,16.63
2023-04-01T15:18:51.077Z,11.77
2023-04-01T15:22:00.852Z,11.88
2023-04-01T15:24:49.130Z,9.80
2023-04-01T15:27:26.291Z,11.00
2023-04-01T15:30:18.913Z,10.60
2023-04-01T15:33:15.101Z,12.60
2023-04-01T15:36:20.402Z,10.35
2023-04-01T15:38:54.396Z,12.85
2023-04-01T15:41:43.027Z,11.93
2023-04-01T15:44:39.453Z,18.05
2023-04-01T15:47:27.279Z,16.80
2023-04-01T15:50:10.023Z,8.38
2023-04-01T15:52:50.637Z,12.20
2023-04-01T15:58:02.086Z,9.88
2023-04-01T16:00:32.837Z,8.88
2023-04-01T16:03:38.819Z,7.05
2023-04-01T16:06:15.550Z,8.73
2023-04-01T16:08:58.516Z,8.52
2023-04-01T16:11:41.859Z,9.60
2023-04-01T16:14:42.603Z,12.73
2023-04-01T16:17:32.229Z,10.13
2023-04-01T16:22:38.614Z,6.93
2023-04-01T16:25:37.647Z,8.50
2023-04-01T16:28:37.070Z,6.82
2023-04-01T16:31:04.846Z,9.95
2023-04-01T16:33:41.704Z,7.25
2023-04-01T16:36:57.254Z,6.85
2023-04-01T16:39:47.615Z,9.77
2023-04-01T16:42:36.394Z,5.70
2023-04-01T16:45:37.825Z,7.63
2023-04-01T16:48:17.094Z,8.57
2023-04-01T16:50:54.991Z,12.83
2023-04-01T16:53:41.977Z,6.45
2023-04-01T16:56:14.984Z,6.43
2023-04-01T16:59:07.718Z,7.80
2023-04-01T17:02:02.980Z,6.57
2023-04-01T17:04:40.276Z,9.63
2023-04-01T17:07:20.379Z,5.97
2023-04-01T17:09:59.324Z,5.95
2023-04-01T17:12:45.301Z,12.98
2023-04-01T17:15:45.583Z,9.07
2023-04-01T17:18:35.233Z,7.93
2023-04-01T17:21:20.106Z,8.70
2023-04-01T17:24:07.268Z,7.65
2023-04-01T17:26:46.608Z,7.53
2023-04-01T17:29:53.166Z,9.07
2023-04-01T17:32:42.932Z,9.07
2023-04-01T17:38:04.474Z,8.35
2023-04-01T17:40:44.955Z,10.55
2023-04-01T17:43:42.830Z,14.35
2023-04-01T17:46:38.502Z,9.05
2023-04-01T17:49:20.457Z,8.35
2023-04-01T17:52:17.598Z,9.18
2023-04-01T17:55:47.360Z,11.20
2023-04-01T17:58:22.282Z,11.57
2023-04-01T18:01:16.235Z,9.98
2023-04-01T18:04:04.109Z,8.50
2023-04-01T18:06:56.655Z,14.70
2023-04-01T18:09:36.893Z,13.93
2023-04-01T18:12:17.919Z,14.15
2023-04-01T18:15:04.396Z,13.52
2023-04-01T18:17:49.694Z,10.98
2023-04-01T18:20:56.730Z,6.90
2023-04-01T18:23:49.383Z,9.35
2023-04-01T18:26:39.260Z,9.20
2023-04-01T18:29:35.282Z,11.63
2023-04-01T18:32:12.080Z,8.90
2023-04-01T18:35:10.424Z,7.72
2023-04-01T18:37:47.318Z,9.80
2023-04-01T18:40:30.580Z,12.55
2023-04-01T18:43:03.961Z,13.68
2023-04-01T18:45:41.961Z,13.57
2023-04-01T18:48:44.748Z,13.55
2023-04-01T18:51:39.626Z,7.88
2023-04-01T18:54:46.405Z,11.93
2023-04-01T18:57:21.320Z,8.68
2023-04-01T19:00:05.892Z,9.18
2023-04-01T19:02:47.117Z,11.68
2023-04-01T19:05:33.317Z,8.77
2023-04-01T19:08:16.076Z,10.40
2023-04-01T19:11:13.328Z,9.40
2023-04-01T19:13:46.708Z,11.57
2023-04-01T19:16:45.203Z,10.05
2023-04-01T19:19:44.076Z,11.95
2023-04-01T19:22:39.580Z,10.20
2023-04-01T19:25:22.744Z,9.60
2023-04-01T19:28:02.990Z,9.43
2023-04-01T19:30:50.643Z,10.32
2023-04-01T19:33:44.602Z,10.30
2023-04-01T19:36:52.727Z,12.18
2023-04-01T19:39:29.768Z,8.02
2023-04-01T19:42:12.611Z,12.82
2023-04-01T19:45:16.622Z,7.63
2023-04-01T19:48:36.987Z,8.13
2023-04-01T19:51:21.259Z,13.45
2023-04-01T19:54:12.066Z,10.70
2023-04-01T19:57:00.148Z,10.23
2023-04-01T20:00:35.811Z,8.63
2023-04-01T20:03:48.539Z,8.38
2023-04-01T20:06:38.869Z,14.85
2023-04-01T20:09:44.158Z,12.05
2023-04-01T20:12:29.193Z,14.77
2023-04-01T20:15:06.473Z,10.32
2023-04-01T20:21:40.298Z,12.07
2023-04-01T20:24:26.708Z,10.30
2023-04-01T20:27:09.017Z,9.23
2023-04-01T20:30:08.932Z,10.32
2023-04-01T20:33:08.297Z,11.00
2023-04-01T20:35:47.529Z,13.73
2023-04-01T20:38:37.843Z,11.48
2023-04-01T20:41:28.751Z,9.48
2023-04-01T20:44:15.775Z,7.88
2023-04-01T20:47:38.287Z,9.15
2023-04-01T20:50:18.592Z,6.32
2023-04-01T20:53:47.314Z,11.23
2023-04-01T20:59:35.234Z,9.52
2023-04-01T21:02:44.123Z,7.20
2023-04-01T21:05:50.427Z,10.93
2023-04-01T21:08:41.589Z,10.07
2023-04-01T21:11:31.939Z,15.25
2023-04-01T21:14:30.825Z,10.35
2023-04-01T21:17:21.929Z,11.95
2023-04-01T21:19:58.483Z,9.13
2023-04-01T21:22:38.850Z,13.05
2023-04-01T21:25:33.337Z,9.50
2023-04-01T21:28:39.197Z,13.30
2023-04-01T21:31:34.841Z,6.15
2023-04-01T21:34:45.092Z,13.63
2023-04-01T21:37:48.054Z,5.78
2023-04-01T21:40:29.127Z,9.63
2023-04-01T21:43:25.041Z,15.20
2023-04-01T21:45:57.688Z,8.82
2023-04-01T21:48:45.778Z,11.02
2023-04-01T21:51:56.874Z,6.00
2023-04-01T21:55:13.489Z,11.32
2023-04-01T21:58:10.407Z,12.32
2023-04-01T22:01:28.072Z,6.78
2023-04-01T22:04:34.628Z,8.73
2023-04-01T22:07:16.429Z,5.25
2023-04-01T22:10:18.492Z,16.70
2023-04-01T22:20:57.262Z,11.23
2023-04-01T22:24:11.469Z,13.60
2023-04-01T22:27:26.452Z,20.48
2023-04-01T22:30:18.078Z,17.77
2023-04-01T22:33:03.826Z,14.30
2023-04-01T22:35:48.567Z,15.27
2023-04-01T22:39:00.265Z,15.23
2023-04-01T22:41:52.650Z,26.50
2023-04-01T22:44:42.492Z,38.35
2023-04-01T22:47:43.768Z,42.47
2023-04-01T22:50:40.041Z,34.17
2023-04-01T22:53:27.675Z,23.80
2023-04-01T22:56:04.858Z,17.33
2023-04-01T22:58:50.610Z,9.27
2023-04-01T23:01:28.757Z,10.40
2023-04-01T23:04:27.641Z,11.32
2023-04-01T23:07:38.936Z,7.63
2023-04-01T23:10:23.165Z,8.63
2023-04-01T23:12:56.059Z,13.95
2023-04-01T23:15:36.509Z,8.63
2023-04-01T23:18:15.416Z,11.30
2023-04-01T23:21:08.478Z,12.60
2023-04-01T23:23:54.661Z,9.60
2023-04-01T23:26:34.557Z,7.13
2023-04-01T23:29:09.086Z,11.35
2023-04-01T23:31:41.018Z,8.40
2023-04-01T23:34:18.004Z,8.10
2023-04-01T23:36:56.942Z,6.47
2023-04-01T23:39:42.832Z,10.32
2023-04-01T23:42:41.601Z,7.53
2023-04-01T23:45:21.318Z,6.57
2023-04-01T23:47:59.942Z,6.60
2023-04-01T23:50:29.790Z,7.30
2023-04-01T23:53:04.001Z,7.85
2023-04-01T23:55:34.805Z,8.90
2023-04-01T23:58:09.667Z,6.70
